CYEN

Estevan Airport

Estevan, Saskatchewan, Canada
TAF CYEN 141738Z 1418/1424 22010KT P6SM SKC BECMG 1419/1421 22012G22KT RMK FCST BASED ON AUTO OBS. NXT FCST WILL BE ISSUED AT 151145Z
Issued Valid From Valid To
Dec-14 @ 17:38 UTC
(4 hours ago)
Dec-14 @ 18:00 UTC
(4 hours ago)
Dec-15 @ 00:00 UTC
(in 2 hours)
Expired Click to View Dec-14 @ 18:00 to Dec-14 @ 19:00
TAF CYEN 141738Z 1418/1424 22010KT P6SM SKC
Wind Visibility Clouds
220° at 10 knots Greater than 6 miles
  • Clear skies
Becoming Dec-14 @ 19:00 to Dec-15 @ 00:00
BECMG 1419/1421 22012G22KT RMK FCST BASED ON AUTO OBS. NXT FCST WILL BE ISSUED AT 151145Z
Wind Visibility Clouds
220° at 12 knots
 Gusting to 22 knots
Greater than 6 miles
  • Clear skies
TAF CYEN 141738Z 1418/1424 22010KT P6SM SKC BECMG 1419/1421 22012G22KT RMK FCST BASED ON AUTO OBS. NXT FCST WILL BE ISSUED AT 151145Z
Issued Dec-14 @ 17:38 UTC
(4 hours ago)
Valid From Dec-14 @ 18:00 UTC
(4 hours ago)
Valid To Dec-15 @ 00:00 UTC
(in 2 hours)
Dec-14 @ 18:00 - Dec-14 @ 19:00
Wind Visibility
220° at 10 knots Greater than 6 miles
Clouds
  • Clear skies
Becoming Dec-14 @ 19:00 - Dec-15 @ 00:00
Wind Visibility
220° at 12 knots
 Gusting to 22 knots
Greater than 6 miles
Clouds
  • Clear skies